85PA weather

Krumenacker Airport
Carrolltown, Pennsylvania, United States

Public forecast

Using degrees Fahrenheit for public forecast. Weather courtesy of forecast.io.

Closest aviation weather report (METAR) to Krumenacker Airport

Closest report is Indiana County/Jimmy Stewart Fld/ Airport, 15.1 nm (27.9 km) W. Retrieved 2019/10/23 09:35 UTC (0 seconds ago):

KIDI 230935Z AUTO 00000KT 10SM FEW080 05/05 A2998 RMK A01

Closest aviation forecast (TAF) to Krumenacker Airport

Closest forecast is John Murtha Johnstown Cambria County Airport, 16.9 nm (31.4 km) S. Retrieved 2019/10/23 06:54 UTC (3 hours ago):

TAF KJST 230551Z 2306/2406 27009KT P6SM BKN060 FM230900 25010KT 4SM BR BKN035 FM231300 26012G19KT P6SM SKC